Time;durP1;ratioP1;P1;durP2;ratioP2;P2;SDS_P1;SDS_P2;PMS_P1;PMS_P2;Temp;Humidity;BMP_temperature;BMP_pressure;BME280_temperature;BME280_humidity;BME280_pressure;Samples;Min_cycle;Max_cycle;Signal;HPM_P1;HPM_P2
2022/05/09 00:01:39;;;;;;;3.20;1.40;;;12.10;99.90;;;;;;5090418;28;20396;-70
2022/05/09 00:04:04;;;;;;;0.40;0.40;;;12.10;99.90;;;;;;5090106;28;20753;-70
2022/05/09 00:06:30;;;;;;;0.40;0.20;;;12.00;99.90;;;;;;5089463;28;20459;-70
2022/05/09 00:08:56;;;;;;;0.40;0.40;;;12.00;99.90;;;;;;5090079;28;20451;-70
2022/05/09 00:11:21;;;;;;;0.40;0.20;;;11.90;99.90;;;;;;5089047;28;20398;-70
2022/05/09 00:13:47;;;;;;;0.40;0.20;;;11.90;99.90;;;;;;5093406;28;20382;-70
2022/05/09 00:16:13;;;;;;;0.40;0.30;;;11.80;99.90;;;;;;5093392;28;20426;-70
2022/05/09 00:18:39;;;;;;;0.40;0.20;;;11.80;99.90;;;;;;5094045;28;20735;-70
2022/05/09 00:21:05;;;;;;;0.40;0.20;;;11.70;99.90;;;;;;5094412;28;20463;-70
2022/05/09 00:23:31;;;;;;;0.40;0.20;;;11.70;99.90;;;;;;5093632;28;21402;-70
2022/05/09 00:25:57;;;;;;;0.40;0.20;;;11.70;99.90;;;;;;5093822;28;20490;-70
2022/05/09 00:28:23;;;;;;;0.40;0.20;;;11.70;99.90;;;;;;5093784;28;20389;-70
2022/05/09 00:30:49;;;;;;;0.40;0.20;;;11.60;99.90;;;;;;5094008;28;20397;-70
2022/05/09 00:33:14;;;;;;;0.40;0.30;;;11.60;99.90;;;;;;5093222;28;20405;-70
2022/05/09 00:35:44;;;;;;;0.40;0.20;;;11.60;99.90;;;;;;5093990;28;20873;-70
2022/05/09 00:38:10;;;;;;;0.40;0.20;;;11.50;99.90;;;;;;5093069;28;20746;-70
2022/05/09 00:40:35;;;;;;;0.70;0.70;;;11.50;99.90;;;;;;5093508;28;20394;-70
2022/05/09 00:43:02;;;;;;;0.40;0.20;;;11.50;99.90;;;;;;5093754;28;20416;-70
2022/05/09 00:45:28;;;;;;;0.40;0.20;;;11.60;99.90;;;;;;5093146;28;20479;-70
2022/05/09 00:47:54;;;;;;;0.70;0.70;;;11.60;99.90;;;;;;5093915;28;20385;-70
2022/05/09 00:50:26;;;;;;;0.40;0.30;;;11.60;99.90;;;;;;5092991;28;20447;-70
2022/05/09 00:53:07;;;;;;;0.40;0.30;;;11.50;99.90;;;;;;5093280;28;20481;-70
2022/05/09 00:55:45;;;;;;;0.40;0.20;;;11.50;99.90;;;;;;5092343;28;20393;-70
2022/05/09 00:58:21;;;;;;;0.40;0.40;;;11.40;99.90;;;;;;5092882;28;20402;-70
2022/05/09 01:00:47;;;;;;;0.45;0.45;;;11.40;99.90;;;;;;5085960;28;20398;-70
2022/05/09 01:03:20;;;;;;;0.40;0.20;;;11.40;99.90;;;;;;5093038;28;20386;-70
2022/05/09 01:05:50;;;;;;;0.40;0.30;;;11.30;99.90;;;;;;5093410;28;20414;-70
2022/05/09 01:08:17;;;;;;;0.40;0.40;;;11.30;99.90;;;;;;5092776;28;20425;-70
2022/05/09 01:10:43;;;;;;;0.40;0.20;;;11.30;99.90;;;;;;5093023;28;20866;-69
2022/05/09 01:13:12;;;;;;;0.40;0.23;;;11.20;99.90;;;;;;5093390;28;20427;-70
2022/05/09 01:15:40;;;;;;;0.40;0.20;;;11.20;99.90;;;;;;5092938;28;20396;-70
2022/05/09 01:18:09;;;;;;;0.40;0.22;;;11.20;99.90;;;;;;5093337;28;20393;-70
2022/05/09 01:20:35;;;;;;;0.40;0.20;;;11.20;99.90;;;;;;5092004;28;20382;-70
2022/05/09 01:23:03;;;;;;;0.40;0.30;;;11.10;99.90;;;;;;5093276;28;20382;-70
2022/05/09 01:25:31;;;;;;;0.40;0.20;;;11.10;99.90;;;;;;5091061;28;20428;-70
2022/05/09 01:27:57;;;;;;;0.40;0.20;;;11.10;99.90;;;;;;5092557;28;20933;-70
2022/05/09 01:30:31;;;;;;;0.40;0.20;;;11.00;99.90;;;;;;5092076;28;20467;-70
2022/05/09 01:33:05;;;;;;;0.40;0.20;;;10.90;99.90;;;;;;5092951;28;20479;-70
2022/05/09 01:35:48;;;;;;;0.40;0.30;;;10.90;99.90;;;;;;5092208;28;20425;-69
2022/05/09 01:38:37;;;;;;;0.40;0.20;;;10.90;99.90;;;;;;5092649;28;20398;-70
2022/05/09 01:41:03;;;;;;;0.40;0.20;;;11.00;99.90;;;;;;5092655;28;20431;-70
2022/05/09 01:43:40;;;;;;;0.40;0.20;;;10.80;99.90;;;;;;5102667;28;20408;-70
2022/05/09 01:46:12;;;;;;;1.05;0.63;;;10.90;99.90;;;;;;5112710;28;20412;-70
2022/05/09 01:51:23;;;;;;;0.40;0.20;;;10.80;99.90;;;;;;5112411;28;20563;-70
2022/05/09 01:53:52;;;;;;;0.40;0.30;;;10.70;99.90;;;;;;5113072;28;20384;-70
2022/05/09 01:56:23;;;;;;;0.40;0.30;;;10.60;99.90;;;;;;5112250;28;20396;-69
2022/05/09 01:58:49;;;;;;;0.40;0.20;;;10.50;99.90;;;;;;5112528;28;20416;-70
2022/05/09 02:01:18;;;;;;;0.40;0.20;;;10.50;99.90;;;;;;5111456;28;20403;-70
2022/05/09 02:03:45;;;;;;;0.40;0.20;;;10.50;99.90;;;;;;5111940;28;20467;-70
2022/05/09 02:06:11;;;;;;;0.40;0.30;;;10.40;99.90;;;;;;5112930;28;20396;-70
2022/05/09 02:08:38;;;;;;;0.40;0.20;;;10.40;99.90;;;;;;5111751;28;20400;-70
2022/05/09 02:11:07;;;;;;;0.40;0.20;;;10.50;99.90;;;;;;5112639;28;20424;-70
2022/05/09 02:13:34;;;;;;;0.40;0.40;;;10.40;99.90;;;;;;5111665;28;20491;-70
2022/05/09 02:16:03;;;;;;;0.40;0.30;;;10.50;99.90;;;;;;5112514;28;20396;-69
2022/05/09 02:18:29;;;;;;;0.40;0.20;;;10.30;99.90;;;;;;5112131;28;20741;-71
2022/05/09 02:20:55;;;;;;;1.50;0.80;;;10.40;99.90;;;;;;5112280;28;20477;-70
2022/05/09 02:23:21;;;;;;;0.40;0.40;;;10.40;99.90;;;;;;5111357;28;20423;-70
2022/05/09 02:25:47;;;;;;;0.40;0.30;;;10.40;99.90;;;;;;5112130;28;20412;-69
2022/05/09 02:28:14;;;;;;;0.40;0.25;;;10.50;99.90;;;;;;5112595;28;20393;-70
2022/05/09 02:30:41;;;;;;;0.40;0.30;;;10.50;99.90;;;;;;5111188;28;20388;-70
2022/05/09 02:33:08;;;;;;;0.40;0.30;;;10.40;99.90;;;;;;5111756;28;20475;-70
2022/05/09 02:35:34;;;;;;;0.40;0.30;;;10.50;99.90;;;;;;5111366;28;20373;-70
2022/05/09 02:38:00;;;;;;;0.40;0.20;;;10.50;99.90;;;;;;5093787;28;20392;-70
2022/05/09 02:40:26;;;;;;;0.40;0.25;;;10.40;99.90;;;;;;5110952;28;20463;-70
2022/05/09 02:42:53;;;;;;;0.40;0.20;;;10.40;99.90;;;;;;5111828;28;20449;-70
2022/05/09 02:45:19;;;;;;;0.40;0.30;;;10.40;99.90;;;;;;5110873;28;20416;-70
2022/05/09 02:47:45;;;;;;;2.00;1.30;;;10.30;99.90;;;;;;5111453;28;20472;-70
2022/05/09 02:50:11;;;;;;;0.50;0.50;;;10.20;99.90;;;;;;5111837;28;20853;-70
2022/05/09 02:52:40;;;;;;;0.40;0.20;;;10.20;99.90;;;;;;5110919;28;20435;-69
2022/05/09 02:55:07;;;;;;;0.40;0.30;;;10.10;99.90;;;;;;5112092;28;20396;-69
2022/05/09 02:57:34;;;;;;;0.40;0.20;;;10.00;99.90;;;;;;5110722;28;20416;-69
2022/05/09 03:00:00;;;;;;;0.40;0.20;;;10.00;99.90;;;;;;5111764;28;20399;-69
2022/05/09 03:02:26;;;;;;;0.40;0.20;;;10.00;99.90;;;;;;5110684;28;20487;-69
2022/05/09 03:04:52;;;;;;;0.40;0.20;;;10.00;99.90;;;;;;5111428;28;20412;-69
2022/05/09 03:07:19;;;;;;;0.90;0.80;;;9.90;99.90;;;;;;5111122;28;20444;-69
2022/05/09 03:09:47;;;;;;;0.40;0.20;;;10.00;99.90;;;;;;5110667;28;20393;-70
2022/05/09 03:12:13;;;;;;;0.50;0.50;;;9.90;99.90;;;;;;5111737;28;20737;-70
2022/05/09 03:14:39;;;;;;;0.40;0.40;;;9.90;99.90;;;;;;5109954;28;21002;-69
2022/05/09 03:17:07;;;;;;;0.40;0.40;;;9.90;99.90;;;;;;5111432;28;20388;-69
2022/05/09 03:19:33;;;;;;;0.70;0.70;;;9.90;99.90;;;;;;5110313;28;20471;-69
2022/05/09 03:21:59;;;;;;;0.40;0.20;;;9.80;99.90;;;;;;5093622;28;20861;-69
2022/05/09 03:24:25;;;;;;;0.40;0.20;;;9.80;99.90;;;;;;5110269;28;20415;-69
2022/05/09 03:26:51;;;;;;;0.40;0.20;;;9.80;99.90;;;;;;5111260;28;20433;-69
2022/05/09 03:29:19;;;;;;;0.65;0.60;;;9.70;99.90;;;;;;5111466;28;20482;-69
2022/05/09 03:31:47;;;;;;;0.40;0.30;;;9.80;99.90;;;;;;5110473;28;20876;-69
2022/05/09 03:34:13;;;;;;;0.40;0.20;;;9.70;99.90;;;;;;5111233;28;20376;-69
2022/05/09 03:36:39;;;;;;;0.40;0.20;;;9.70;99.90;;;;;;5092581;28;20388;-69
2022/05/09 03:39:05;;;;;;;3.10;0.90;;;9.60;99.90;;;;;;5110521;28;20813;-69
2022/05/09 03:41:31;;;;;;;0.40;0.20;;;9.70;99.90;;;;;;5110209;28;20424;-69
2022/05/09 03:43:56;;;;;;;0.55;0.50;;;9.70;99.90;;;;;;5111347;28;20388;-69
2022/05/09 03:46:22;;;;;;;0.40;0.20;;;9.80;99.90;;;;;;5110639;28;20905;-69
2022/05/09 03:48:48;;;;;;;0.40;0.30;;;9.70;99.90;;;;;;5110132;28;20388;-69
2022/05/09 03:51:14;;;;;;;0.40;0.20;;;9.60;99.90;;;;;;5111212;28;20853;-69
2022/05/09 03:53:39;;;;;;;0.52;0.43;;;9.60;99.90;;;;;;5110458;28;20393;-69
2022/05/09 03:56:07;;;;;;;0.40;0.20;;;9.60;99.90;;;;;;5110780;28;20411;-69
2022/05/09 03:58:33;;;;;;;0.40;0.20;;;9.60;99.90;;;;;;5110355;28;20408;-69
2022/05/09 04:00:59;;;;;;;0.40;0.20;;;9.60;99.90;;;;;;5110492;28;20400;-69
2022/05/09 04:03:24;;;;;;;0.40;0.20;;;9.70;99.90;;;;;;5109054;28;20404;-69
2022/05/09 04:05:51;;;;;;;0.50;0.40;;;9.60;99.90;;;;;;5110529;28;20412;-69
2022/05/09 04:08:20;;;;;;;0.50;0.50;;;9.70;99.90;;;;;;5110855;28;20388;-69
2022/05/09 04:10:48;;;;;;;0.40;0.20;;;9.60;99.90;;;;;;5110031;28;20500;-69
2022/05/09 04:13:14;;;;;;;0.40;0.40;;;9.50;99.90;;;;;;5110781;28;20906;-69
2022/05/09 04:18:39;;;;;;;0.40;0.20;;;9.60;99.90;;;;;;5110426;28;20395;-69
2022/05/09 04:21:06;;;;;;;0.90;0.50;;;9.60;99.90;;;;;;5110689;28;20442;-69
2022/05/09 04:23:33;;;;;;;0.40;0.30;;;9.60;99.90;;;;;;5110143;28;20384;-69
2022/05/09 04:26:00;;;;;;;1.25;1.15;;;9.60;99.90;;;;;;5110229;28;20408;-69
2022/05/09 04:28:25;;;;;;;0.40;0.30;;;9.60;99.90;;;;;;5109935;28;20734;-69
2022/05/09 04:30:51;;;;;;;0.40;0.20;;;9.50;99.90;;;;;;5110769;28;20411;-69
2022/05/09 04:33:17;;;;;;;0.40;0.20;;;9.60;99.90;;;;;;5110659;28;20384;-69
2022/05/09 04:35:44;;;;;;;0.40;0.20;;;9.70;99.90;;;;;;5109931;28;20384;-69
2022/05/09 04:38:22;;;;;;;0.40;0.30;;;9.70;99.90;;;;;;5110625;28;20396;-69
2022/05/09 04:40:51;;;;;;;0.40;0.20;;;9.60;99.90;;;;;;5110259;28;20479;-69
2022/05/09 04:43:19;;;;;;;0.50;0.50;;;9.60;99.90;;;;;;5101473;28;20413;-69
2022/05/09 04:45:45;;;;;;;1.80;1.70;;;9.70;99.90;;;;;;5071782;28;20580;-69
2022/05/09 04:48:13;;;;;;;0.40;0.40;;;9.90;99.90;;;;;;5090052;28;20941;-69
2022/05/09 04:50:39;;;;;;;0.40;0.20;;;10.00;99.90;;;;;;5083332;28;20391;-69
2022/05/09 04:53:05;;;;;;;0.40;0.20;;;9.90;99.90;;;;;;5088269;28;20390;-70
2022/05/09 04:55:31;;;;;;;1.50;1.10;;;10.00;99.90;;;;;;5087259;28;20758;-69
2022/05/09 04:57:56;;;;;;;0.50;0.50;;;9.80;99.90;;;;;;5088732;28;20406;-69
2022/05/09 05:00:31;;;;;;;0.40;0.20;;;9.90;99.90;;;;;;5093514;28;20851;-69
2022/05/09 05:02:57;;;;;;;0.90;0.90;;;10.00;99.90;;;;;;5092677;28;20436;-69
2022/05/09 05:05:24;;;;;;;0.40;0.20;;;10.10;99.90;;;;;;5093632;28;20406;-69
2022/05/09 05:07:51;;;;;;;0.40;0.20;;;10.10;99.90;;;;;;5093019;28;20394;-69
2022/05/09 05:10:18;;;;;;;0.40;0.20;;;10.10;99.90;;;;;;5091324;28;20444;-69
2022/05/09 05:12:44;;;;;;;0.40;0.30;;;10.20;99.90;;;;;;5090451;28;20474;-70
2022/05/09 05:15:10;;;;;;;0.40;0.20;;;10.30;99.90;;;;;;5093113;28;20412;-69
2022/05/09 05:17:36;;;;;;;0.40;0.30;;;10.30;99.90;;;;;;5092435;28;20378;-70
2022/05/09 05:20:09;;;;;;;3.20;0.70;;;10.30;99.90;;;;;;5090400;28;20424;-69
2022/05/09 05:22:37;;;;;;;0.40;0.30;;;10.40;99.90;;;;;;5090829;28;20390;-70
2022/05/09 05:25:04;;;;;;;0.40;0.20;;;10.40;99.90;;;;;;5082418;28;20429;-69
2022/05/09 05:27:29;;;;;;;0.40;0.20;;;10.50;99.90;;;;;;5090454;28;20383;-70
2022/05/09 05:29:57;;;;;;;0.70;0.60;;;10.60;99.90;;;;;;5092131;28;20390;-70
2022/05/09 05:32:25;;;;;;;0.40;0.20;;;10.60;99.90;;;;;;5085518;28;20398;-70
2022/05/09 05:34:51;;;;;;;0.40;0.20;;;10.60;99.90;;;;;;5090458;28;20409;-69
2022/05/09 05:37:18;;;;;;;0.40;0.40;;;10.80;99.90;;;;;;5092195;28;20418;-69
2022/05/09 05:39:44;;;;;;;0.40;0.30;;;10.80;99.90;;;;;;5085381;28;20816;-69
2022/05/09 05:42:10;;;;;;;0.40;0.20;;;10.90;99.90;;;;;;5090483;28;20473;-68
2022/05/09 05:44:39;;;;;;;0.40;0.30;;;11.10;99.90;;;;;;5110781;28;20426;-67
2022/05/09 05:47:07;;;;;;;0.40;0.20;;;11.10;99.90;;;;;;5109987;28;20836;-68
2022/05/09 05:49:34;;;;;;;0.40;0.30;;;11.20;99.90;;;;;;5112051;28;20714;-68
2022/05/09 05:52:03;;;;;;;1.30;1.20;;;11.30;99.90;;;;;;5112253;28;20443;-68
2022/05/09 05:54:30;;;;;;;0.40;0.20;;;11.30;99.90;;;;;;5106338;28;20529;-68
2022/05/09 05:56:56;;;;;;;0.80;0.70;;;11.40;99.90;;;;;;5112447;28;20896;-68
2022/05/09 05:59:23;;;;;;;0.40;0.20;;;11.50;99.90;;;;;;5109870;28;20396;-68
2022/05/09 06:01:51;;;;;;;0.80;0.80;;;11.50;99.90;;;;;;5111304;28;20391;-68
2022/05/09 06:04:20;;;;;;;0.40;0.22;;;11.70;99.90;;;;;;5111516;28;20403;-68
2022/05/09 06:06:46;;;;;;;0.40;0.20;;;11.80;99.90;;;;;;5111100;28;20484;-69
2022/05/09 06:09:12;;;;;;;0.40;0.28;;;11.80;99.90;;;;;;5111339;28;20398;-69
2022/05/09 06:11:40;;;;;;;0.40;0.20;;;11.90;99.90;;;;;;5111478;28;20396;-68
2022/05/09 06:14:07;;;;;;;0.60;0.60;;;11.90;99.90;;;;;;5109655;28;20400;-68
2022/05/09 06:16:33;;;;;;;0.50;0.50;;;12.00;99.90;;;;;;5111022;28;20396;-68
2022/05/09 06:19:00;;;;;;;0.40;0.20;;;12.10;99.90;;;;;;5104694;28;20421;-68
2022/05/09 06:21:26;;;;;;;0.40;0.20;;;12.20;99.90;;;;;;5107717;28;20400;-68
2022/05/09 06:23:52;;;;;;;0.40;0.20;;;12.30;99.90;;;;;;5110467;28;21256;-68
2022/05/09 06:26:18;;;;;;;0.40;0.20;;;12.40;99.90;;;;;;5112048;28;20412;-68
2022/05/09 06:28:44;;;;;;;0.40;0.40;;;12.50;99.90;;;;;;5111034;28;20392;-68
2022/05/09 06:31:09;;;;;;;0.40;0.20;;;12.60;99.90;;;;;;5112626;28;20796;-67
2022/05/09 06:33:35;;;;;;;0.40;0.30;;;12.90;99.90;;;;;;5110960;28;20384;-68
2022/05/09 06:36:01;;;;;;;0.40;0.30;;;13.10;99.90;;;;;;5111708;28;20388;-68
2022/05/09 06:38:27;;;;;;;0.40;0.20;;;13.30;99.90;;;;;;5111114;28;20392;-68
2022/05/09 06:40:56;;;;;;;0.60;0.60;;;13.60;99.90;;;;;;5110570;28;20402;-67
2022/05/09 06:43:23;;;;;;;1.40;1.30;;;13.70;99.90;;;;;;5101314;28;20409;-68
2022/05/09 06:45:52;;;;;;;1.60;0.80;;;13.80;99.90;;;;;;5090052;28;20882;-68
2022/05/09 06:48:18;;;;;;;0.63;0.50;;;13.90;99.90;;;;;;5092283;28;20712;-67
2022/05/09 06:50:44;;;;;;;0.40;0.30;;;14.00;99.90;;;;;;5089724;28;20726;-68
2022/05/09 06:53:11;;;;;;;0.40;0.30;;;14.00;99.90;;;;;;5090818;28;20397;-68
2022/05/09 06:55:37;;;;;;;0.90;0.90;;;14.10;99.90;;;;;;5086458;28;20397;-68
2022/05/09 06:58:07;;;;;;;0.80;0.80;;;14.30;99.90;;;;;;5089954;28;20398;-68
2022/05/09 07:00:34;;;;;;;0.40;0.30;;;14.40;99.90;;;;;;5087917;28;20402;-69
2022/05/09 07:03:00;;;;;;;0.40;0.40;;;14.40;99.90;;;;;;5090291;28;20463;-69
2022/05/09 07:05:26;;;;;;;0.57;0.57;;;14.50;99.90;;;;;;5081904;28;20443;-70
2022/05/09 07:07:52;;;;;;;0.60;0.50;;;14.50;99.90;;;;;;5082759;28;20401;-70
2022/05/09 07:10:19;;;;;;;0.50;0.50;;;14.50;99.90;;;;;;5090005;28;20398;-70
2022/05/09 07:12:51;;;;;;;0.40;0.30;;;14.60;99.90;;;;;;5089607;28;20390;-69
2022/05/09 07:15:28;;;;;;;0.40;0.30;;;14.70;99.90;;;;;;5090043;28;20455;-69
2022/05/09 07:17:55;;;;;;;0.40;0.20;;;14.80;99.90;;;;;;5087916;28;20850;-70
2022/05/09 07:20:25;;;;;;;1.30;1.20;;;14.80;99.90;;;;;;5090906;28;20393;-69
2022/05/09 07:22:56;;;;;;;0.40;0.40;;;14.90;99.90;;;;;;5089363;28;20421;-70
2022/05/09 07:25:23;;;;;;;0.40;0.30;;;15.00;99.90;;;;;;5090773;28;20406;-70
2022/05/09 07:27:50;;;;;;;1.20;0.80;;;15.10;99.90;;;;;;5090400;28;20378;-70
2022/05/09 07:30:18;;;;;;;0.90;0.90;;;15.20;99.90;;;;;;5090766;28;20439;-69
2022/05/09 07:32:44;;;;;;;0.40;0.40;;;15.40;99.90;;;;;;5089952;28;20389;-70
2022/05/09 07:35:12;;;;;;;0.90;0.60;;;15.50;99.90;;;;;;5091011;28;20370;-70
2022/05/09 07:37:40;;;;;;;1.00;0.90;;;15.60;99.90;;;;;;5090027;28;20390;-69
2022/05/09 07:40:10;;;;;;;0.40;0.30;;;15.80;99.90;;;;;;5090567;28;20394;-70
2022/05/09 07:42:37;;;;;;;0.40;0.30;;;15.90;99.90;;;;;;5088253;28;20416;-69
2022/05/09 07:45:04;;;;;;;0.40;0.20;;;15.90;99.90;;;;;;5090271;28;20475;-70
2022/05/09 07:47:30;;;;;;;0.40;0.28;;;16.00;99.90;;;;;;5090199;28;20731;-69
2022/05/09 07:49:56;;;;;;;0.40;0.30;;;16.20;99.90;;;;;;5089707;28;20454;-69
2022/05/09 07:52:23;;;;;;;0.40;0.20;;;16.20;99.90;;;;;;5090378;28;20877;-69
2022/05/09 07:54:49;;;;;;;0.40;0.30;;;16.20;99.90;;;;;;5089142;28;20435;-68
2022/05/09 07:57:15;;;;;;;0.40;0.40;;;16.40;99.90;;;;;;5089909;28;20741;-69
2022/05/09 07:59:41;;;;;;;0.40;0.40;;;16.40;99.90;;;;;;5089293;28;20393;-68
2022/05/09 08:02:07;;;;;;;0.45;0.28;;;16.30;99.90;;;;;;5089992;28;20390;-69
2022/05/09 08:04:34;;;;;;;0.40;0.20;;;16.50;99.90;;;;;;5086855;28;20495;-69
2022/05/09 08:07:01;;;;;;;0.40;0.28;;;16.50;99.90;;;;;;5089570;28;20483;-69
2022/05/09 08:09:27;;;;;;;0.40;0.20;;;16.60;99.90;;;;;;5072091;28;20433;-69
2022/05/09 08:11:54;;;;;;;1.10;1.00;;;16.70;99.90;;;;;;5089957;28;20752;-69
2022/05/09 08:14:20;;;;;;;0.90;0.70;;;16.70;99.90;;;;;;5090533;28;20402;-69
2022/05/09 08:16:46;;;;;;;0.80;0.70;;;16.80;99.90;;;;;;5089709;28;20386;-69
2022/05/09 08:19:12;;;;;;;0.40;0.20;;;16.90;99.90;;;;;;5090434;28;20388;-69
2022/05/09 08:21:38;;;;;;;0.50;0.50;;;16.90;99.90;;;;;;5089843;28;20390;-69
2022/05/09 08:24:10;;;;;;;0.40;0.30;;;17.00;99.90;;;;;;5087750;28;20409;-68
2022/05/09 08:26:36;;;;;;;0.40;0.20;;;16.90;99.90;;;;;;5084090;28;20409;-69
2022/05/09 08:29:03;;;;;;;0.40;0.30;;;17.00;99.90;;;;;;5088624;28;20485;-69
2022/05/09 08:31:28;;;;;;;0.40;0.30;;;17.00;99.90;;;;;;5086475;28;20409;-70
2022/05/09 08:33:57;;;;;;;0.40;0.20;;;17.00;99.90;;;;;;5083076;28;20393;-69
2022/05/09 08:39:10;;;;;;;0.40;0.30;;;17.10;99.90;;;;;;5086244;28;20436;-69
2022/05/09 08:41:44;;;;;;;0.50;0.50;;;17.20;99.90;;;;;;5085804;28;20382;-70
2022/05/09 08:44:27;;;;;;;0.50;0.50;;;17.40;99.90;;;;;;5093304;28;20942;-70
2022/05/09 08:47:30;;;;;;;0.40;0.40;;;17.40;99.90;;;;;;5094298;28;20404;-70
2022/05/09 08:50:46;;;;;;;0.40;0.30;;;17.40;99.90;;;;;;5090859;28;20418;-70
2022/05/09 08:53:22;;;;;;;0.40;0.30;;;17.50;99.90;;;;;;5055135;28;20399;-70
2022/05/09 08:55:49;;;;;;;0.60;0.60;;;17.50;99.90;;;;;;5085980;28;21436;-69
2022/05/09 08:58:39;;;;;;;0.40;0.40;;;17.60;99.90;;;;;;5085471;28;20386;-69
2022/05/09 09:01:22;;;;;;;0.40;0.22;;;17.70;99.90;;;;;;5085148;28;20768;-68
2022/05/09 09:04:00;;;;;;;0.40;0.30;;;17.90;99.90;;;;;;5086064;28;20500;-69
2022/05/09 09:06:37;;;;;;;0.40;0.20;;;17.80;99.90;;;;;;5097731;28;20437;-69
2022/05/09 09:09:41;;;;;;;1.43;1.10;;;17.90;99.90;;;;;;5085572;28;20442;-69
2022/05/09 09:12:36;;;;;;;0.40;0.40;;;17.90;99.90;;;;;;5066808;28;20423;-70
2022/05/09 09:15:17;;;;;;;0.60;0.60;;;18.00;99.90;;;;;;5080953;28;20404;-69
2022/05/09 09:18:08;;;;;;;0.40;0.30;;;18.10;99.90;;;;;;5091059;28;20394;-68
2022/05/09 09:20:58;;;;;;;0.40;0.20;;;18.00;99.90;;;;;;5085379;28;20489;-67
2022/05/09 09:23:39;;;;;;;0.40;0.40;;;18.10;99.90;;;;;;5083495;28;20871;-68
2022/05/09 09:26:40;;;;;;;0.40;0.30;;;18.20;99.90;;;;;;5102890;28;20435;-68
2022/05/09 09:29:28;;;;;;;0.50;0.50;;;18.40;99.90;;;;;;5091955;28;20682;-68
2022/05/09 09:32:20;;;;;;;0.70;0.60;;;18.30;99.90;;;;;;5091968;28;20388;-67
2022/05/09 09:34:57;;;;;;;0.70;0.70;;;18.40;99.90;;;;;;5101142;28;20435;-67
2022/05/09 09:37:33;;;;;;;0.60;0.60;;;18.40;99.90;;;;;;5095918;28;20402;-67
2022/05/09 09:39:59;;;;;;;0.40;0.40;;;18.60;99.90;;;;;;5076537;28;20432;-67
2022/05/09 09:42:25;;;;;;;0.40;0.20;;;18.70;99.90;;;;;;5091401;28;20899;-68
2022/05/09 09:44:54;;;;;;;0.40;0.40;;;18.90;99.90;;;;;;5094030;28;20409;-69
2022/05/09 09:47:20;;;;;;;0.40;0.30;;;18.80;99.90;;;;;;5085704;28;21860;-69
2022/05/09 09:50:23;;;;;;;0.40;0.30;;;18.90;99.90;;;;;;5105808;28;20392;-68
2022/05/09 09:52:53;;;;;;;0.40;0.20;;;18.90;99.90;;;;;;5075571;28;20428;-69
2022/05/09 09:55:24;;;;;;;0.40;0.20;;;19.00;99.90;;;;;;5086742;28;20790;-68
2022/05/09 09:57:50;;;;;;;0.40;0.20;;;19.10;99.90;;;;;;5081271;28;20845;-68
2022/05/09 10:00:17;;;;;;;1.27;0.98;;;19.10;99.90;;;;;;5090101;28;20762;-69
2022/05/09 10:02:43;;;;;;;0.40;0.40;;;19.30;99.90;;;;;;5080724;28;20400;-69
2022/05/09 10:05:16;;;;;;;0.40;0.30;;;19.30;99.90;;;;;;5081205;28;20788;-69
2022/05/09 10:07:45;;;;;;;0.40;0.20;;;19.50;99.90;;;;;;5082362;28;20396;-68
2022/05/09 10:10:18;;;;;;;0.40;0.30;;;19.60;99.90;;;;;;5076597;28;20399;-68
2022/05/09 10:12:52;;;;;;;0.40;0.40;;;19.70;99.90;;;;;;5085360;28;20398;-68
2022/05/09 10:15:26;;;;;;;0.40;0.30;;;19.70;99.90;;;;;;5092593;28;20404;-68
2022/05/09 10:17:52;;;;;;;0.70;0.70;;;19.80;99.90;;;;;;5072967;28;20402;-68
2022/05/09 10:20:33;;;;;;;0.50;0.50;;;19.90;99.90;;;;;;5079170;28;20477;-68
2022/05/09 10:26:03;;;;;;;0.40;0.30;;;20.20;99.90;;;;;;5086862;28;20410;-70
2022/05/09 10:28:34;;;;;;;0.40;0.40;;;19.90;99.90;;;;;;5084545;28;20855;-71
2022/05/09 10:31:08;;;;;;;0.40;0.30;;;20.10;99.90;;;;;;5078880;28;20394;-71
2022/05/09 10:33:47;;;;;;;0.90;0.50;;;20.10;99.90;;;;;;5084365;28;20382;-71
2022/05/09 10:36:32;;;;;;;0.40;0.40;;;20.10;99.90;;;;;;5092013;28;20398;-70
2022/05/09 10:39:06;;;;;;;0.40;0.20;;;20.10;99.90;;;;;;5077602;28;20395;-72
2022/05/09 10:41:45;;;;;;;0.70;0.70;;;20.30;99.90;;;;;;5071847;28;20417;-71
2022/05/09 10:44:27;;;;;;;0.40;0.30;;;20.50;99.90;;;;;;5089246;28;20410;-72
2022/05/09 10:47:08;;;;;;;0.40;0.30;;;20.50;99.90;;;;;;5071377;28;20947;-72
2022/05/09 10:49:43;;;;;;;0.50;0.50;;;20.50;99.90;;;;;;5082602;28;20404;-71
2022/05/09 10:52:20;;;;;;;0.40;0.30;;;20.40;99.90;;;;;;5087217;28;20393;-69
2022/05/09 10:54:45;;;;;;;0.60;0.60;;;20.50;99.90;;;;;;5077269;28;20391;-71
2022/05/09 10:57:55;;;;;;;1.20;0.70;;;20.70;99.90;;;;;;5088628;28;20790;-70
2022/05/09 11:00:25;;;;;;;0.80;0.80;;;20.90;99.90;;;;;;5063726;28;20766;-70
2022/05/09 11:02:56;;;;;;;0.40;0.40;;;20.80;99.90;;;;;;5090659;28;20447;-71
2022/05/09 11:05:24;;;;;;;0.40;0.30;;;21.20;99.90;;;;;;5091339;28;20801;-71
2022/05/09 11:08:11;;;;;;;0.40;0.40;;;21.20;99.90;;;;;;5090177;28;20397;-72
2022/05/09 11:10:48;;;;;;;0.40;0.30;;;21.50;99.90;;;;;;5091731;28;20486;-71
2022/05/09 11:13:34;;;;;;;0.40;0.20;;;22.00;99.50;;;;;;5077068;28;20409;-71
2022/05/09 11:16:08;;;;;;;0.70;0.70;;;22.50;96.50;;;;;;5088909;28;20819;-71
2022/05/09 11:18:56;;;;;;;1.80;0.70;;;22.00;96.70;;;;;;5090455;28;20655;-70
2022/05/09 11:21:45;;;;;;;0.40;0.30;;;21.80;96.00;;;;;;5089357;28;20425;-71
2022/05/09 11:24:11;;;;;;;0.40;0.20;;;21.20;96.60;;;;;;5090220;28;20796;-71
2022/05/09 11:26:51;;;;;;;1.10;1.00;;;21.70;96.20;;;;;;5088795;28;20406;-72
2022/05/09 11:29:35;;;;;;;0.40;0.30;;;21.90;98.40;;;;;;5085583;28;20938;-71
2022/05/09 11:32:35;;;;;;;0.40;0.40;;;22.30;96.10;;;;;;5089713;28;20390;-72
2022/05/09 11:35:26;;;;;;;0.80;0.80;;;22.60;95.20;;;;;;5090128;28;20398;-71
2022/05/09 11:38:36;;;;;;;0.55;0.52;;;23.10;91.90;;;;;;5072166;28;20398;-72
2022/05/09 11:41:41;;;;;;;0.40;0.30;;;24.10;91.40;;;;;;5057809;28;20394;-70
2022/05/09 11:44:09;;;;;;;0.40;0.30;;;24.40;88.10;;;;;;5014244;28;20577;-70
2022/05/09 11:46:43;;;;;;;0.40;0.30;;;23.80;87.30;;;;;;5081365;28;20413;-71
2022/05/09 11:49:21;;;;;;;0.40;0.20;;;24.40;86.50;;;;;;5086787;28;20402;-70
2022/05/09 11:51:59;;;;;;;0.40;0.30;;;24.10;90.30;;;;;;5069813;28;20449;-71
2022/05/09 11:54:38;;;;;;;0.80;0.70;;;24.50;90.00;;;;;;5080598;28;20789;-71
2022/05/09 11:57:09;;;;;;;0.40;0.20;;;24.00;87.30;;;;;;5081571;28;20801;-72
2022/05/09 11:59:36;;;;;;;0.52;0.52;;;23.00;87.40;;;;;;5089714;28;20434;-72
2022/05/09 12:02:36;;;;;;;0.52;0.52;;;23.10;88.60;;;;;;5089043;28;20394;-71
2022/05/09 12:05:25;;;;;;;1.23;0.75;;;22.60;91.60;;;;;;5083464;28;20420;-72
2022/05/09 12:08:02;;;;;;;0.70;0.50;;;22.70;92.80;;;;;;5086724;28;20397;-72
2022/05/09 12:10:30;;;;;;;0.40;0.28;;;24.30;90.20;;;;;;5090317;28;20382;-71
2022/05/09 12:13:01;;;;;;;0.60;0.50;;;25.70;81.30;;;;;;5089621;28;20386;-72
2022/05/09 12:15:27;;;;;;;0.40;0.40;;;27.00;73.40;;;;;;5090357;28;20386;-73
2022/05/09 12:17:58;;;;;;;0.40;0.20;;;26.70;78.40;;;;;;5089255;28;20722;-73
2022/05/09 12:20:27;;;;;;;0.40;0.20;;;26.20;73.30;;;;;;5089354;28;20398;-72
2022/05/09 12:22:56;;;;;;;0.40;0.20;;;26.70;78.50;;;;;;5087901;28;20394;-73
2022/05/09 12:25:39;;;;;;;0.40;0.20;;;25.90;76.90;;;;;;5090297;28;20445;-72
2022/05/09 12:28:16;;;;;;;0.40;0.20;;;25.40;78.50;;;;;;5089899;28;20374;-73
2022/05/09 12:30:45;;;;;;;0.60;0.50;;;24.60;81.40;;;;;;5090247;28;20477;-72
2022/05/09 12:33:50;;;;;;;0.60;0.60;;;24.60;81.50;;;;;;5089607;28;20420;-71
2022/05/09 12:36:31;;;;;;;0.40;0.20;;;24.90;76.60;;;;;;5083750;28;20813;-71
2022/05/09 12:39:18;;;;;;;0.40;0.20;;;26.90;71.00;;;;;;5088703;28;20406;-72
2022/05/09 12:41:46;;;;;;;0.50;0.47;;;25.30;73.50;;;;;;5073286;28;20892;-71
2022/05/09 12:44:17;;;;;;;1.20;0.50;;;24.00;83.50;;;;;;5086513;28;20505;-72
2022/05/09 12:46:52;;;;;;;0.40;0.20;;;24.50;82.60;;;;;;5088339;28;20459;-73
2022/05/09 12:49:22;;;;;;;0.50;0.40;;;25.50;80.50;;;;;;5087524;28;20800;-72
2022/05/09 12:51:55;;;;;;;0.50;0.40;;;26.30;71.70;;;;;;5088865;28;20378;-72
2022/05/09 12:54:24;;;;;;;0.50;0.30;;;25.70;70.40;;;;;;5089639;28;20943;-71
2022/05/09 12:57:00;;;;;;;0.50;0.50;;;26.20;72.50;;;;;;5088787;28;20397;-72
2022/05/09 12:59:29;;;;;;;0.40;0.30;;;26.50;69.80;;;;;;5090099;28;20501;-72
2022/05/09 13:02:01;;;;;;;0.40;0.20;;;26.10;71.40;;;;;;5088554;28;20394;-70
2022/05/09 13:04:32;;;;;;;0.40;0.30;;;25.50;69.70;;;;;;5089363;28;20382;-71
2022/05/09 13:07:04;;;;;;;0.40;0.30;;;25.70;79.20;;;;;;5088581;28;20811;-72
2022/05/09 13:09:36;;;;;;;0.40;0.30;;;26.40;76.70;;;;;;5071481;28;20818;-71
2022/05/09 13:12:23;;;;;;;0.50;0.40;;;26.90;74.60;;;;;;5088569;28;20390;-71
2022/05/09 13:14:57;;;;;;;0.50;0.40;;;25.70;74.30;;;;;;5088978;28;20530;-71
2022/05/09 13:17:37;;;;;;;0.50;0.40;;;25.30;75.30;;;;;;5089915;28;20401;-72
2022/05/09 13:20:19;;;;;;;0.60;0.40;;;24.40;77.20;;;;;;5087678;28;20386;-72